createdAt,value
2018-06-12T18:03:15.746Z,94268.80
2018-06-12T18:05:49.100Z,94263.22
2018-06-12T18:08:17.969Z,94267.86
2018-06-12T18:10:46.393Z,94273.38
2018-06-12T18:13:14.748Z,94279.00
2018-06-12T18:15:43.379Z,94278.19
2018-06-12T18:18:11.751Z,94272.81
2018-06-12T18:20:40.395Z,94274.31
2018-06-12T18:23:09.118Z,94270.81
2018-06-12T18:25:37.793Z,94274.88
2018-06-12T18:28:06.477Z,94279.65
2018-06-12T18:30:35.029Z,94280.20
2018-06-12T18:33:03.543Z,94283.45
2018-06-12T18:35:31.997Z,94291.87
2018-06-12T18:38:00.625Z,94297.95
2018-06-12T18:40:29.185Z,94299.37
2018-06-12T18:42:57.521Z,94302.20
2018-06-12T18:45:26.378Z,94305.63
2018-06-12T18:47:54.921Z,94303.51
2018-06-12T18:50:23.225Z,94308.27
2018-06-12T18:52:52.108Z,94312.41
2018-06-12T18:55:20.668Z,94317.77
2018-06-12T18:57:49.082Z,94321.09
2018-06-12T19:00:17.834Z,94318.64
2018-06-12T19:02:46.389Z,94324.01
2018-06-12T19:05:14.721Z,94323.86
2018-06-12T19:07:43.310Z,94328.59
2018-06-12T19:10:11.893Z,94322.84
2018-06-12T19:12:40.587Z,94323.81
2018-06-12T19:15:09.346Z,94326.23
2018-06-12T19:17:37.733Z,94335.67
2018-06-12T19:20:06.331Z,94339.24
2018-06-12T19:22:35.354Z,94335.03
2018-06-12T19:25:04.026Z,94333.88
2018-06-12T19:27:32.308Z,94337.30
2018-06-12T19:30:01.289Z,94335.77
2018-06-12T19:32:29.762Z,94323.28
2018-06-12T19:34:58.154Z,94325.65
2018-06-12T19:37:26.898Z,94324.78
2018-06-12T19:39:55.412Z,94320.80
2018-06-12T19:42:24.110Z,94324.73
2018-06-12T19:44:52.870Z,94330.00
2018-06-12T19:47:21.142Z,94332.41
2018-06-12T19:49:49.437Z,94327.97
2018-06-12T19:52:18.670Z,94326.44
2018-06-12T19:54:47.141Z,94330.83
2018-06-12T19:57:15.940Z,94329.08
2018-06-12T19:59:44.627Z,94330.78
2018-06-12T20:02:13.193Z,94336.10
2018-06-12T20:04:41.518Z,94342.45
2018-06-12T20:07:10.402Z,94341.31
2018-06-12T20:09:44.357Z,94335.89
2018-06-12T20:12:12.457Z,94335.48
2018-06-12T20:14:40.507Z,94338.52
2018-06-12T20:17:08.728Z,94335.38
2018-06-12T20:19:37.348Z,94337.92
2018-06-12T20:22:11.405Z,94341.58
2018-06-12T20:24:46.061Z,94329.04
